METAR Data
IDs: Format: Raw Decoded Include TAF

Data at: 2245 UTC 25 Oct 2021

PAVA 252156Z AUTO 26004KT 10SM BKN034 M02/M04 A2947 RMK AO2 SLP985 T10171039 FZRANO PNO $
PAVA 252056Z AUTO 00000KT 10SM FEW032 OVC049 M02/M03 A2947 RMK AO2 UPB32E45 SLP985 6//// T10171033 53003 FZRANO PNO $
PAVA 251956Z AUTO 24005KT 4SM BR BKN055 M04/M06 A2947 RMK AO2 SLP984 T10441056 FZRANO PNO $
PAVA 251856Z AUTO 22005KT 10SM SCT040 BKN055 M04/M04 A2946 RMK AO2 SNE47 SLP982 T10391044 FZRANO PNO $
PAVA 251844Z AUTO 23004KT 9SM -SN FEW006 SCT028 OVC040 M04/M04 A2946 RMK AO2 FZRANO PNO $
PAVA 251828Z AUTO 25006KT 3SM -SN BR FEW005 BKN015 OVC030 M03/M04 A2946 RMK AO2 FZRANO PNO $
PAVA 251823Z AUTO 27006KT 1 3/4SM -SN BR FEW005 BKN015 OVC023 M03/M04 A2946 RMK AO2 FZRANO PNO $
PAVA 251817Z AUTO 30006KT 1 3/4SM -SN BR BKN013 BKN023 OVC045 M04/M04 A2946 RMK AO2 FZRANO PNO $
PAVA 251807Z AUTO 30006KT 2 1/2SM -SN BR FEW015 BKN023 OVC047 M05/M06 A2946 RMK AO2 VIS 1 1/2V5 FZRANO PNO $
PAVA 251756Z AUTO 30005KT 9SM -SN FEW015 SCT039 OVC049 M05/M06 A2946 RMK AO2 SNB53 SLP982 6//// T10501061 11022 21061 53004 FZRANO PNO $
PAVA 251656Z AUTO 26005KT 10SM BKN055 M06/M07 A2946 RMK AO2 SLP981 T10611067 FZRANO PNO $
PAVA 251556Z AUTO 01003KT 10SM CLR M04/M05 A2945 RMK AO2 SNE14 SLP977 T10391050 FZRANO PNO $
PAVA 251512Z AUTO 36007KT 9SM -SN FEW017 SCT022 BKN055 M03/M04 A2945 RMK AO2 FZRANO PNO $
PAVA 251456Z AUTO 33009KT 3SM -SN BR BKN020 BKN031 OVC050 M03/M04 A2945 RMK AO2 SNB39 SLP978 6//// T10331044 51001 FZRANO PNO $
PAVA 251356Z AUTO 31006KT 10SM FEW050 M05/M06 A2945 RMK AO2 SLP979 T10501061 FZRANO PNO $
PAVA 251256Z AUTO 34008KT 10SM CLR M03/M06 A2945 RMK AO2 SLP978 T10331056 FZRANO PNO $
PAVA 251156Z AUTO 32008KT 10SM BKN049 M02/M04 A2945 RMK AO2 SNB07E36 SLP977 6//// 7//// T10221044 11022 21050 56004 FZRANO PNO $
PAVA 251056Z AUTO 34007KT 10SM BKN045 OVC050 M03/M04 A2945 RMK AO2 SNB14E24 SLP978 T10331044 FZRANO PNO $
PAVA 250956Z AUTO 29005KT 10SM BKN045 M04/M05 A2946 RMK AO2 SLP980 T10441050 FZRANO PNO $
PAVA 250856Z AUTO 35006KT 10SM BKN038 M03/M05 A2946 RMK AO2 SLP980 6//// T10331050 55002 FZRANO PNO $
PAVA 250756Z AUTO 31007KT 10SM OVC038 M04/M06 A2946 RMK AO2 SLP980 T10441061 400111050 FZRANO PNO $
PAVA 250656Z AUTO 00000KT 10SM FEW050 M05/M06 A2946 RMK AO2 SLP981 T10501061 FZRANO PNO $
PAVA 250556Z AUTO 29004KT 10SM FEW025 SCT030 OVC047 M03/M04 A2947 RMK AO2 UPB15E31 SLP983 6//// T10281044 10011 21028 57006 FZRANO PNO $
PAVA 250456Z AUTO 00000KT 10SM SCT030 BKN040 OVC049 M02/M03 A2947 RMK AO2 UPB20E37 SLP986 T10221033 FZRANO PNO $
PAVA 250356Z AUTO 33003KT 10SM FEW032 OVC042 M02/M03 A2948 RMK AO2 SLP987 T10171033 FZRANO PNO $
PAVA 250256Z AUTO 00000KT 10SM FEW024 BKN039 OVC048 M01/M03 A2948 RMK AO2 SLP989 6//// T10111028 56013 FZRANO PNO $
PAVA 250215Z AUTO 29003KT 10SM FEW024 BKN033 OVC042 M01/M03 A2949 RMK AO2 FZRANO PNO $
PAVA 250156Z AUTO 35004KT 9SM BKN024 OVC034 01/M03 A2949 RMK AO2 SLP991 T00061028 FZRANO PNO $
PAVA 250148Z AUTO 00000KT 9SM FEW018 BKN024 OVC034 01/M03 A2949 RMK AO2 FZRANO PNO $
PAVA 250132Z AUTO 00000KT 10SM FEW012 BKN035 OVC043 00/M02 A2949 RMK AO2 FZRANO PNO $
PAVA 250106Z AUTO 32004KT 10SM BKN016 BKN031 01/M02 A2950 RMK AO2 FZRANO PNO $
PAVA 250056Z AUTO 30003KT 10SM SCT014 BKN031 01/M02 A2950 RMK AO2 SLP995 T00111017 FZRANO PNO $
PAVA 242356Z AUTO 29006KT 10SM FEW014 00/M03 A2952 RMK AO2 SLP003 6//// T00001033 10011 21033 58010 FZRANO PNO $
PAVA 242256Z AUTO 25006KT 10SM CLR 01/M02 A2954 RMK AO2 SLP008 T00061017 FZRANO PNO $
PAVA 242156Z AUTO 25006KT 10SM FEW010 SCT021 BKN030 M01/M02 A2955 RMK AO2 UPB17E27SNE17 SLP013 T10111022 FZRANO PNO $
PAVA 242152Z AUTO 25007KT 10SM FEW010 SCT021 BKN030 M01/M02 A2955 RMK AO2 UPB17E27SNE17 FZRANO PNO $
PAVA 242144Z AUTO 25006KT 10SM FEW010 BKN021 M01/M02 A2955 RMK AO2 UPB17E27SNE17 FZRANO PNO $
PAVA 242056Z AUTO 31010KT 6SM -SN BR FEW007 SCT031 BKN060 00/M02 A2956 RMK AO2 SNB32 SLP015 6//// T00001017 58001 FZRANO PNO $
PAVA 241956Z AUTO 26005KT 10SM CLR M03/M03 A2956 RMK AO2 SLP016 T10281033 FZRANO PNO $
PAVA 241856Z AUTO 24007KT 10SM FEW016 M03/M03 A2957 RMK AO2 SLP017 T10281033 FZRANO PNO $
PAVA 241839Z AUTO 25009KT 10SM FEW004 SCT016 BKN041 M03/M03 A2957 RMK AO2 FZRANO PNO $
PAVA 241756Z AUTO 28006KT 10SM FEW035 SCT046 BKN070 M03/M03 A2956 RMK AO2 SNB04E46 SLP016 6//// T10281033 11011 21028 58006 FZRANO PNO $
PAVA 241741Z AUTO 28006KT 9SM -SN FEW006 BKN035 OVC055 M02/M03 A2957 RMK AO2 SNB04 FZRANO PNO $
PAVA 241724Z AUTO 31008KT 3SM -SN BR FEW006 SCT010 BKN016 M02/M02 A2957 RMK AO2 SNB04 FZRANO PNO $
PAVA 241718Z AUTO 29010G20KT 1 1/4SM -SN BR SCT006 SCT010 BKN016 M02/M02 A2957 RMK AO2 SNB04 FZRANO PNO $
PAVA 241715Z AUTO 29011G20KT 1SM -SN BR SCT006 BKN010 M02/M02 A2957 RMK AO2 SNB04 FZRANO PNO $
PAVA 241710Z AUTO 30016G20KT 2SM -SN BR FEW008 SCT016 SCT043 M02/M03 A2957 RMK AO2 SNB04 FZRANO PNO $
PAVA 241656Z AUTO 31008KT 10SM FEW019 SCT043 SCT050 M02/M03 A2958 RMK AO2 SNE49 SLP021 T10221033 FZRANO PNO $
PAVA 241651Z AUTO 31009KT 9SM FEW017 SCT033 BKN043 M02/M03 A2958 RMK AO2 SNE49 FZRANO PNO $
PAVA 241632Z AUTO 31013G18KT 4SM -SN BR FEW013 BKN025 OVC031 M02/M02 A2958 RMK AO2 FZRANO PNO $
PAVA 241618Z AUTO 29007KT 8SM -SN FEW013 SCT023 BKN031 M02/M03 A2958 RMK AO2 FZRANO PNO $
PAVA 241610Z AUTO 30006KT 9SM -SN FEW009 BKN029 BKN035 M02/M02 A2958 RMK AO2 FZRANO PNO $
PAVA 241559Z AUTO 30006KT 5SM -SN BR FEW011 SCT023 BKN034 M01/M02 A2958 RMK AO2 FZRANO PNO $
PAVA 241556Z AUTO 30008KT 2 1/2SM -SN BR SCT011 BKN023 BKN034 M01/M02 A2958 RMK AO2 VIS 1V5 SNB36 SLP023 T10111017 FZRANO PNO $
PAVA 241550Z AUTO 31011KT 1 3/4SM -SN BR FEW009 SCT017 BKN029 M01/M02 A2958 RMK AO2 SNB36 FZRANO PNO $
PAVA 241456Z AUTO 27015KT 10SM CLR M02/M04 A2959 RMK AO2 SNE02 SLP025 6//// T10221039 58002 FZRANO PNO $
PAVA 241356Z AUTO 32010KT 9SM -SN FEW015 SCT029 BKN060 M02/M03 A2960 RMK AO2 SNB1259 SLP028 T10171028 FZRANO PNO $
PAVA 241256Z AUTO 29015KT 10SM FEW047 M02/M03 A2959 RMK AO2 SNE14 SLP027 T10171033 FZRANO PNO $
PAVA 241156Z AUTO 27008KT 10SM -SN SCT040 BKN048 M02/M03 A2959 RMK AO2 SNE19B53 SLP027 6//// 7//// T10221028 10006 21022 53008 FZRANO PNO $
PAVA 241056Z AUTO 30013G21KT 9SM -SN FEW024 SCT034 BKN050 M01/M03 A2958 RMK AO2 SLP022 T10111028 FZRANO PNO $